In Rescue
 
Open Full Screen Window  High Contrast Mode
October 19, 2020 7:25 PM CDT
Weather Information
Wind Direction
  ---
Wind Speed
  00 kt (0 mph)
Wind Gust
  00 kt (0 mph)
Altimeter
30.21 in
Visibility
10 SM
Temperature
-02° C
28° F
Dewpoint
-03° C
27° F
Humidity
93%
1hr Rain Fall
00.00 in.
24hr Rain Fall
00.00 in.
Sky Condition
Overcast @ 4,500 ft
VFR

METAR KAIT 200025Z AUTO 00000KT 10SM OVC045 M02/M03 A3021 RMK AO2

FAA Disclaimer: The data displayed is for advisory purposes only and is not to be used for flight planning or operations.